Terminal Aerodrome Forecast
Issued by NWS Cleveland, OH

Home | Current Version | Previous Version | Graphics & Text | Print | Product List | Glossary On
Versions: 1 2 3 4 5 6 7 8 9 10 11 12 13 14
000
FTUS41 KCLE 180520
TAFTOL
TAF
KTOL 180520Z 1806/1906 22008KT P6SM SKC WS015/25045KT
     FM181100 23008KT P6SM SCT250
     FM181600 23012G20KT P6SM BKN250
     FM182200 26010KT P6SM SKC=

USA.gov is the U.S. government's official web portal to all federal, state and local government web resources and services.